Airfield :
LOGIN :

Register | Disclaimer

   EN    FR    IT 

 










Legend :    VFR   Marginal VFR   IFR   Intensive IFR   Very Intensive IFR
Visi :
Ceiling :
>= 8 km
>= 3000ft
5 to 8 km
1000 to 3000 ft
1500m to 5 km
500 to 1000 ft
800 to 1500m
200 to 500 ft
< 800m
< 200 ft
Symbols :   Thunderstorms  Fog  Heavy snow  Heavy precipitations  Wind > 20 kt
SIGMETs :     Misc.  Thunderstorms  Icing  Turbulence  Mountain Waves  Volcanic Ashes






- Airport Elevation : 5600 ft
- IATA code : SMV


LSZS - Samedan

CURRENT METAR :
  • 300650Z VRB02KT 9999 FEW003 BKN065 00/00 Q1026 RMK A TL170

EXPIRED METARs :
  • 300620Z AUTO VRB01KT 9999 SCT060 OVC080 M00/M00 Q1026
  • 300550Z AUTO VRB02KT 9999 FEW050 OVC075 00/00 Q1026
  • 300520Z AUTO VRB02KT 9999 BKN075 00/00 Q1026
  • 300450Z AUTO VRB02KT 9999 BKN060 M00/M00 Q1026 REFZDZ
  • 300420Z AUTO VRB01KT 2700 BR OVC060 M00/M00 Q1026 REFZDZ

TAF TAF LSZS
Valid from the 30 at 06:00 until the 30 at 15:00 UTC


300525Z 3006/3015 VRB03KT 9999 SCT050 TX13/3014Z
PROB40
TEMPO 3006/3008 4000 BR
PROB30 3006/3008 2000 BCFG
BECMG 3008/3011 CAVOK
ATIS : +41 81 834 93 24



MET'MAP, your aeronautical weather chart ! - Copyright ORBIFLY December 2007 - Disclaimer

ORBIFLY MET'MAP TEAM :

Programming & Development : Alexandra Zaïnal
Concept & original design : Baudouin d'Aumeries
Assistance for programming : Marc-Olivier Méhu
Technical & hardware support : Manuel Goepfert

Contact : metmap@orbifly.com




SOURCES & CREDITS :

   NOAA